Time;durP1;ratioP1;P1;durP2;ratioP2;P2;SDS_P1;SDS_P2;PMS_P1;PMS_P2;Temp;Humidity;BMP_temperature;BMP_pressure;BME280_temperature;BME280_humidity;BME280_pressure;Samples;Min_cycle;Max_cycle;Signal;HPM_P1;HPM_P2
2022/10/11 19:01:37;;;;;;;18.40;5.75;;;11.40;99.90;;;;;;4987758;28;20430;-88
2022/10/11 19:04:05;;;;;;;13.25;4.80;;;12.00;99.90;;;;;;4987042;28;20502;-89
2022/10/11 19:06:34;;;;;;;16.33;5.53;;;12.20;99.90;;;;;;4985358;28;20027;-89
2022/10/11 19:09:04;;;;;;;23.95;5.50;;;12.40;99.90;;;;;;4987101;28;20483;-90
2022/10/11 19:11:31;;;;;;;24.13;5.72;;;12.50;99.90;;;;;;4986878;28;20033;-90
2022/10/11 19:14:02;;;;;;;13.52;4.80;;;12.40;99.90;;;;;;4985249;28;20034;-89
2022/10/11 19:16:29;;;;;;;21.25;5.75;;;12.60;99.90;;;;;;4983255;28;20054;-89
2022/10/11 19:18:58;;;;;;;22.65;4.50;;;12.50;99.90;;;;;;4985906;28;20054;-90
2022/10/11 19:21:24;;;;;;;13.68;5.13;;;12.50;99.90;;;;;;4986161;28;20042;-89
2022/10/11 19:23:51;;;;;;;16.85;5.20;;;12.70;99.90;;;;;;4986353;28;20019;-90
2022/10/11 19:26:20;;;;;;;18.27;4.85;;;12.70;99.90;;;;;;4986141;28;20380;-90
2022/10/11 19:28:46;;;;;;;16.27;5.20;;;12.60;99.90;;;;;;4986752;28;20074;-89
2022/10/11 19:31:15;;;;;;;14.73;5.18;;;12.70;99.90;;;;;;4985196;28;20030;-89
2022/10/11 19:33:43;;;;;;;14.63;5.15;;;12.60;99.90;;;;;;4984945;28;20035;-90
2022/10/11 19:36:11;;;;;;;9.93;4.30;;;12.70;99.90;;;;;;4984947;28;20126;-88
2022/10/11 19:38:37;;;;;;;;;;;12.60;99.90;;;;;;4985253;28;20403;-88
2022/10/11 19:41:04;;;;;;;19.92;5.00;;;12.60;99.90;;;;;;4985842;28;19914;-90
2022/10/11 19:43:30;;;;;;;13.15;4.30;;;12.60;99.90;;;;;;4986132;28;20114;-89
2022/10/11 19:46:04;;;;;;;12.85;4.32;;;12.60;99.90;;;;;;4985133;28;20038;-88
2022/10/11 19:48:30;;;;;;;13.35;5.00;;;12.50;99.90;;;;;;4985304;28;20033;-89
2022/10/11 19:51:05;;;;;;;30.13;4.93;;;12.50;99.90;;;;;;4985103;28;20030;-88
2022/10/11 19:53:31;;;;;;;16.58;5.10;;;12.50;99.90;;;;;;4985145;28;20026;-89
2022/10/11 19:56:01;;;;;;;18.70;6.03;;;12.40;99.90;;;;;;4986177;28;20348;-89
2022/10/11 19:58:27;;;;;;;23.90;6.18;;;12.40;99.90;;;;;;4984976;28;20038;-89
2022/10/11 20:01:03;;;;;;;21.65;6.72;;;12.40;99.90;;;;;;5000720;28;20038;-89
2022/10/11 20:03:29;;;;;;;17.77;5.75;;;12.40;99.90;;;;;;5004426;28;20113;-88
2022/10/11 20:05:57;;;;;;;15.95;5.13;;;12.30;99.90;;;;;;5005921;28;20097;-88
2022/10/11 20:08:23;;;;;;;;;;;12.30;99.90;;;;;;5005748;28;20077;-90
2022/10/11 20:10:52;;;;;;;15.68;4.60;;;12.30;99.90;;;;;;5002078;28;19917;-89
2022/10/11 20:13:20;;;;;;;21.13;4.72;;;12.30;99.90;;;;;;4992203;28;20046;-90
2022/10/11 20:15:46;;;;;;;17.40;5.32;;;12.20;99.90;;;;;;4991469;28;20069;-89
2022/10/11 20:18:12;;;;;;;20.13;4.35;;;12.20;99.90;;;;;;4992958;28;20027;-91
2022/10/11 20:20:38;;;;;;;15.32;6.13;;;12.20;99.90;;;;;;4992573;28;20084;-89
2022/10/11 20:23:06;;;;;;;20.60;5.72;;;12.10;99.90;;;;;;4988942;28;20025;-89
2022/10/11 20:25:32;;;;;;;17.88;4.88;;;12.10;99.90;;;;;;4990396;28;20034;-88
2022/10/11 20:27:58;;;;;;;23.08;4.15;;;12.00;99.90;;;;;;4991806;28;20625;-90
2022/10/11 20:30:26;;;;;;;17.75;4.78;;;12.00;99.90;;;;;;4991158;28;20077;-89
2022/10/11 20:32:52;;;;;;;12.68;4.35;;;12.00;99.90;;;;;;4991731;28;20018;-90
2022/10/11 20:35:18;;;;;;;12.32;4.03;;;12.00;99.90;;;;;;4991264;28;20034;-89
2022/10/11 20:37:43;;;;;;;14.75;4.07;;;11.50;99.90;;;;;;4991488;28;20037;-89
2022/10/11 20:40:10;;;;;;;18.33;4.38;;;11.90;99.90;;;;;;4990467;28;20054;-88
2022/10/11 20:42:36;;;;;;;14.80;4.40;;;11.80;99.90;;;;;;4992391;28;20035;-90
2022/10/11 20:45:02;;;;;;;9.63;3.75;;;11.90;99.90;;;;;;4993053;28;20023;-89
2022/10/11 20:47:28;;;;;;;19.83;4.82;;;11.80;99.90;;;;;;4992785;28;20141;-88
2022/10/11 20:49:53;;;;;;;10.77;3.60;;;11.80;99.90;;;;;;4991753;28;20034;-88
2022/10/11 20:52:19;;;;;;;8.45;3.90;;;11.80;99.90;;;;;;4989014;28;20417;-88
2022/10/11 20:54:45;;;;;;;16.35;4.32;;;11.80;99.90;;;;;;4992370;28;20030;-91
2022/10/11 20:57:11;;;;;;;14.60;4.47;;;11.80;99.90;;;;;;4991523;28;20030;-89
2022/10/11 20:59:36;;;;;;;12.80;4.30;;;11.80;99.90;;;;;;4992677;28;20030;-88
2022/10/11 21:02:02;;;;;;;9.98;4.07;;;11.80;99.90;;;;;;4991171;28;20026;-88
2022/10/11 21:04:28;;;;;;;12.38;3.83;;;11.90;99.90;;;;;;4992231;28;20081;-89
2022/10/11 21:06:54;;;;;;;17.92;4.60;;;11.90;99.90;;;;;;4990727;28;20430;-89
2022/10/11 21:09:20;;;;;;;15.43;4.40;;;11.90;99.90;;;;;;4990564;28;20037;-88
2022/10/11 21:11:46;;;;;;;16.95;4.50;;;11.90;99.90;;;;;;4991150;28;20098;-89
2022/10/11 21:14:11;;;;;;;22.55;4.97;;;11.90;99.90;;;;;;4992677;28;20029;-87
2022/10/11 21:16:37;;;;;;;11.32;3.92;;;12.00;99.90;;;;;;4996080;28;20034;-89
2022/10/11 21:19:03;;;;;;;21.40;4.70;;;11.90;99.90;;;;;;4995801;28;20467;-88
2022/10/11 21:21:29;;;;;;;17.73;4.90;;;11.90;99.90;;;;;;4996680;28;20043;-88
2022/10/11 21:23:57;;;;;;;20.38;5.07;;;11.90;99.90;;;;;;4991232;28;20077;-88
2022/10/11 21:26:24;;;;;;;13.73;4.85;;;11.90;99.90;;;;;;4990222;28;20110;-88
2022/10/11 21:28:50;;;;;;;23.50;7.45;;;11.80;99.90;;;;;;4991115;28;20470;-88
2022/10/11 21:31:18;;;;;;;18.02;7.60;;;11.70;99.90;;;;;;4990576;28;20034;-89
2022/10/11 21:33:44;;;;;;;;;;;11.60;99.90;;;;;;4990663;28;20022;-90
2022/10/11 21:36:14;;;;;;;18.20;6.22;;;11.60;99.90;;;;;;4992747;28;19906;-89
2022/10/11 21:38:40;;;;;;;27.58;7.22;;;11.60;99.90;;;;;;4991457;28;20364;-90
2022/10/11 21:41:10;;;;;;;15.70;5.10;;;11.50;99.90;;;;;;4990400;28;20045;-89
2022/10/11 21:43:37;;;;;;;15.75;4.53;;;11.50;99.90;;;;;;4990506;28;20061;-89
2022/10/11 21:46:11;;;;;;;10.80;3.92;;;11.50;99.90;;;;;;4989729;28;20531;-89
2022/10/11 21:48:37;;;;;;;12.82;3.85;;;11.50;99.90;;;;;;4989986;28;20399;-90
2022/10/11 21:51:03;;;;;;;10.90;4.15;;;11.40;99.90;;;;;;4990880;28;20528;-90
2022/10/11 21:53:28;;;;;;;17.65;4.07;;;11.40;99.90;;;;;;4988456;28;20554;-92
2022/10/11 21:55:59;;;;;;;18.30;4.53;;;11.30;99.90;;;;;;4990799;28;20022;-90
2022/10/11 21:58:25;;;;;;;13.95;4.15;;;11.30;99.90;;;;;;4990119;28;20383;-92
2022/10/11 22:00:51;;;;;;;15.90;5.25;;;11.20;99.90;;;;;;4989733;28;20066;-91
2022/10/11 22:03:17;;;;;;;14.25;5.90;;;11.20;99.90;;;;;;4991304;28;20054;-90
2022/10/11 22:05:44;;;;;;;22.77;8.20;;;11.20;99.90;;;;;;4991826;28;20034;-90
2022/10/11 22:08:11;;;;;;;23.60;8.05;;;11.10;99.90;;;;;;4991345;28;20038;-92
2022/10/11 22:10:37;;;;;;;22.10;6.95;;;11.10;99.90;;;;;;4989733;28;20466;-91
2022/10/11 22:13:02;;;;;;;22.83;7.10;;;10.70;99.90;;;;;;4990721;28;20538;-90
2022/10/11 22:15:28;;;;;;;12.07;5.47;;;11.00;99.90;;;;;;4990656;28;20036;-91
2022/10/11 22:17:53;;;;;;;13.45;5.00;;;11.00;99.90;;;;;;4989964;28;20018;-93
2022/10/11 22:20:19;;;;;;;13.88;4.60;;;;;;;;;;4989691;28;20424;-91
2022/10/11 22:22:45;;;;;;;10.85;4.95;;;10.90;99.90;;;;;;4986716;28;20026;-89
2022/10/11 22:25:11;;;;;;;22.85;5.60;;;;;;;;;;4987957;28;20076;-92
2022/10/11 22:27:37;;;;;;;13.75;5.00;;;11.00;99.90;;;;;;4989852;28;20026;-91
2022/10/11 22:30:06;;;;;;;13.70;5.25;;;10.90;99.90;;;;;;4989263;28;20034;-90
2022/10/11 22:32:31;;;;;;;15.13;5.28;;;10.90;99.90;;;;;;4989271;28;20029;-90
2022/10/11 22:34:57;;;;;;;10.60;4.45;;;10.90;99.90;;;;;;4990555;28;20105;-91
2022/10/11 22:37:23;;;;;;;15.73;4.68;;;10.90;99.90;;;;;;4989268;28;20029;-91
2022/10/11 22:39:48;;;;;;;9.23;4.53;;;10.90;99.90;;;;;;4989025;28;20065;-91
2022/10/11 22:42:14;;;;;;;11.35;3.97;;;10.90;99.90;;;;;;4990352;28;20429;-89
2022/10/11 22:44:40;;;;;;;13.45;4.10;;;10.90;99.90;;;;;;4989554;28;20037;-91
2022/10/11 22:47:05;;;;;;;11.40;4.18;;;10.80;99.90;;;;;;4989807;28;20172;-90
2022/10/11 22:49:31;;;;;;;9.15;3.88;;;10.90;99.90;;;;;;4989367;28;20026;-92
2022/10/11 22:51:57;;;;;;;13.52;3.90;;;10.90;99.90;;;;;;4989139;28;20023;-91
2022/10/11 22:54:23;;;;;;;16.05;3.97;;;10.90;99.90;;;;;;4990604;28;20379;-90
2022/10/11 22:56:48;;;;;;;9.70;3.75;;;10.80;99.90;;;;;;4990356;28;20026;-91
2022/10/11 22:59:14;;;;;;;11.00;4.00;;;10.80;99.90;;;;;;4991139;28;20044;-91
2022/10/11 23:01:40;;;;;;;12.13;4.68;;;10.90;99.90;;;;;;4988895;28;20030;-91
2022/10/11 23:04:05;;;;;;;13.13;4.20;;;10.80;99.90;;;;;;4990007;28;20102;-89
2022/10/11 23:06:31;;;;;;;13.05;3.95;;;10.80;99.90;;;;;;4988777;28;20037;-92
2022/10/11 23:08:57;;;;;;;9.13;4.07;;;10.70;99.90;;;;;;4988864;28;20072;-90
2022/10/11 23:11:22;;;;;;;13.93;4.38;;;10.80;99.90;;;;;;4989196;28;20022;-90
2022/10/11 23:13:48;;;;;;;12.90;4.22;;;10.70;99.90;;;;;;4988001;28;20034;-90
2022/10/11 23:16:14;;;;;;;12.45;4.30;;;10.80;99.90;;;;;;4989930;28;20058;-90
2022/10/11 23:18:40;;;;;;;10.63;4.13;;;10.70;99.90;;;;;;4989312;28;20446;-91
2022/10/11 23:21:06;;;;;;;9.85;4.43;;;10.90;99.90;;;;;;4987652;28;20042;-91
2022/10/11 23:23:32;;;;;;;20.08;4.03;;;10.80;99.90;;;;;;4988626;28;20081;-89
2022/10/11 23:26:09;;;;;;;11.98;3.90;;;10.70;99.90;;;;;;4989689;28;20434;-91
2022/10/11 23:28:35;;;;;;;8.00;4.13;;;;;;;;;;4988372;28;20533;-91
2022/10/11 23:31:13;;;;;;;15.90;3.90;;;10.70;99.90;;;;;;4987739;28;20030;-90
2022/10/11 23:33:39;;;;;;;7.35;3.58;;;10.70;99.90;;;;;;4988949;28;20042;-91
2022/10/11 23:36:11;;;;;;;10.80;4.20;;;10.70;99.90;;;;;;4988597;28;20031;-89
2022/10/11 23:38:36;;;;;;;10.23;3.83;;;10.70;99.90;;;;;;4973726;28;20026;-90
2022/10/11 23:41:02;;;;;;;12.27;4.38;;;10.70;99.90;;;;;;4988382;28;20522;-92
2022/10/11 23:43:30;;;;;;;11.05;3.80;;;10.70;99.90;;;;;;4988602;28;20029;-91
2022/10/11 23:45:56;;;;;;;20.08;4.18;;;10.70;99.90;;;;;;4988165;28;20125;-90
2022/10/11 23:48:22;;;;;;;14.48;4.22;;;;;;;;;;4992572;28;20026;-91
2022/10/11 23:50:47;;;;;;;11.63;3.97;;;10.70;99.90;;;;;;4991980;28;20508;-91
2022/10/11 23:53:13;;;;;;;14.70;4.45;;;10.70;99.90;;;;;;4993662;28;20026;-90
2022/10/11 23:55:40;;;;;;;12.00;4.05;;;10.70;99.90;;;;;;4998743;28;20398;-90
2022/10/11 23:58:06;;;;;;;12.45;4.05;;;10.70;99.90;;;;;;4997786;28;20027;-90
